HEBA - Borg El Arab Airport

HEBA 152300Z 06006KT 9999 SCT020 12/10 Q1019 NOSIG


Sceneries:

Scenery Link
HEBA/HBE - FREEWARE - Borg AlArab v2.0

Briefing & Aerodrome Charts:

To be uploaded soon! Stay tuned!


Our Partners

VATSIM

VATSIM is the Virtual Air Traffic Simulation network, connecting people from around the world flying online or acting as virtual Air Traffic Controllers.

VATME

VATME - VATSIM Middle East Divison is part of the Africa and Middle East Region on the VATSIM Network.

Egyptair Virtual

Egyptair Virtual simulates the real life operations of Egyptair yet is not releated to the actual Egyptair.